createdAt,value
2017-02-14T00:00:10.050Z,0
2017-02-14T00:01:10.048Z,0
2017-02-14T00:02:11.056Z,0
2017-02-14T00:03:10.850Z,0
2017-02-14T00:04:09.918Z,0
2017-02-14T00:05:10.635Z,0
2017-02-14T00:06:09.617Z,0
2017-02-14T00:07:10.375Z,0
2017-02-14T00:08:10.108Z,0
2017-02-14T00:09:10.801Z,0
2017-02-14T00:10:10.586Z,0
2017-02-14T00:11:10.100Z,0
2017-02-14T00:12:12.049Z,0
2017-02-14T00:13:10.546Z,0
2017-02-14T00:14:10.198Z,0
2017-02-14T00:15:11.641Z,0
2017-02-14T00:16:12.376Z,0
2017-02-14T00:17:11.560Z,0
2017-02-14T00:18:10.685Z,0
2017-02-14T00:19:10.325Z,0
2017-02-14T00:20:10.757Z,0
2017-02-14T00:21:11.798Z,0
2017-02-14T00:22:11.232Z,0
2017-02-14T00:23:10.427Z,0
2017-02-14T00:24:10.866Z,0
2017-02-14T00:25:11.278Z,0
2017-02-14T00:26:11.570Z,0
2017-02-14T00:27:10.572Z,0
2017-02-14T00:28:11.037Z,0
2017-02-14T00:29:10.989Z,0
2017-02-14T00:30:11.110Z,0
2017-02-14T00:31:11.533Z,0
2017-02-14T00:32:10.893Z,0
2017-02-14T00:33:12.145Z,0
2017-02-14T00:34:10.728Z,0
2017-02-14T00:35:10.742Z,0
2017-02-14T00:36:11.019Z,0
2017-02-14T00:37:12.141Z,0
2017-02-14T00:38:11.532Z,0
2017-02-14T00:39:10.754Z,0
2017-02-14T00:40:11.299Z,0
2017-02-14T00:41:11.582Z,0
2017-02-14T00:42:11.868Z,0
2017-02-14T00:43:12.160Z,0
2017-02-14T00:44:12.385Z,0
2017-02-14T00:45:11.005Z,0
2017-02-14T00:46:11.697Z,0
2017-02-14T00:47:11.083Z,0
2017-02-14T00:48:11.111Z,0
2017-02-14T00:49:11.114Z,0
2017-02-14T00:50:11.527Z,0
2017-02-14T00:51:11.819Z,0
2017-02-14T00:52:12.014Z,0
2017-02-14T00:53:11.635Z,0
2017-02-14T00:54:11.697Z,0
2017-02-14T00:55:12.087Z,0
2017-02-14T00:56:11.960Z,0
2017-02-14T00:57:12.184Z,0
2017-02-14T00:58:10.955Z,0
2017-02-14T00:59:11.415Z,0
2017-02-14T01:00:11.901Z,0
2017-02-14T01:01:11.401Z,0
2017-02-14T01:02:11.618Z,0
2017-02-14T01:03:11.592Z,0
2017-02-14T01:04:11.972Z,0
2017-02-14T01:05:11.689Z,0
2017-02-14T01:06:12.155Z,0
2017-02-14T01:07:10.807Z,0
2017-02-14T01:08:12.011Z,0
2017-02-14T01:09:12.163Z,0
2017-02-14T01:10:12.076Z,0
2017-02-14T01:11:11.532Z,0
2017-02-14T01:12:12.517Z,0
2017-02-14T01:13:12.626Z,0
2017-02-14T01:14:12.563Z,0
2017-02-14T01:15:11.792Z,0
2017-02-14T01:16:12.515Z,0
2017-02-14T01:17:12.490Z,0
2017-02-14T01:18:11.895Z,0
2017-02-14T01:19:12.703Z,0
2017-02-14T01:20:11.914Z,0
2017-02-14T01:21:11.949Z,0
2017-02-14T01:22:13.029Z,0
2017-02-14T01:23:12.019Z,0
2017-02-14T01:24:12.418Z,0
2017-02-14T01:25:12.050Z,0
2017-02-14T01:26:11.693Z,0
2017-02-14T01:27:11.580Z,0
2017-02-14T01:28:12.162Z,0
2017-02-14T01:29:12.567Z,0
2017-02-14T01:30:12.586Z,0
2017-02-14T01:31:12.606Z,0
2017-02-14T01:32:12.493Z,0
2017-02-14T01:33:13.057Z,0
2017-02-14T01:34:12.282Z,0
2017-02-14T01:35:12.326Z,0
2017-02-14T01:36:12.769Z,0
2017-02-14T01:37:13.292Z,0
2017-02-14T01:38:12.788Z,0
2017-02-14T01:39:13.217Z,0
2017-02-14T01:40:13.254Z,0
2017-02-14T01:41:12.872Z,0
2017-02-14T01:42:13.144Z,0
2017-02-14T01:43:12.917Z,0
2017-02-14T01:44:12.949Z,0
2017-02-14T01:45:12.182Z,0
2017-02-14T01:46:13.017Z,0
2017-02-14T01:47:12.870Z,0
2017-02-14T01:48:12.280Z,0
2017-02-14T01:49:12.688Z,0
2017-02-14T01:50:13.498Z,0
2017-02-14T01:51:13.174Z,0
2017-02-14T01:52:13.431Z,0
2017-02-14T01:53:12.408Z,0
2017-02-14T01:54:12.411Z,0
2017-02-14T01:55:12.453Z,0
2017-02-14T01:56:13.306Z,0
2017-02-14T01:57:13.954Z,0
2017-02-14T01:58:12.933Z,0
2017-02-14T01:59:13.351Z,0
2017-02-14T02:00:13.376Z,0
2017-02-14T02:01:13.778Z,0
2017-02-14T02:02:13.931Z,0
2017-02-14T02:03:13.463Z,0
2017-02-14T02:04:13.095Z,0
2017-02-14T02:05:13.533Z,0
2017-02-14T02:06:12.721Z,0
2017-02-14T02:07:13.420Z,0
2017-02-14T02:08:13.038Z,0
2017-02-14T02:09:13.988Z,0
2017-02-14T02:10:13.624Z,0
2017-02-14T02:11:13.672Z,0
2017-02-14T02:12:13.685Z,0
2017-02-14T02:13:13.599Z,0
2017-02-14T02:14:12.950Z,0
2017-02-14T02:15:13.003Z,0
2017-02-14T02:16:14.176Z,0
2017-02-14T02:17:13.030Z,0
2017-02-14T02:18:14.507Z,0
2017-02-14T02:19:13.881Z,0
2017-02-14T02:20:13.512Z,0
2017-02-14T02:21:13.923Z,0
2017-02-14T02:22:13.551Z,0
2017-02-14T02:23:13.912Z,0
2017-02-14T02:24:14.002Z,0
2017-02-14T02:25:13.231Z,0
2017-02-14T02:26:14.037Z,0
2017-02-14T02:27:13.304Z,0
2017-02-14T02:28:13.572Z,0
2017-02-14T02:29:14.558Z,0
2017-02-14T02:30:14.548Z,0
2017-02-14T02:31:14.192Z,0
2017-02-14T02:32:14.189Z,0
2017-02-14T02:33:13.680Z,0
2017-02-14T02:34:13.879Z,0
2017-02-14T02:35:13.506Z,0
2017-02-14T02:36:13.908Z,0
2017-02-14T02:37:13.545Z,0
2017-02-14T02:38:14.616Z,0
2017-02-14T02:39:14.382Z,0
2017-02-14T02:40:14.806Z,0
2017-02-14T02:41:14.475Z,0
2017-02-14T02:42:14.066Z,0
2017-02-14T02:43:14.353Z,0
2017-02-14T02:44:14.506Z,0
2017-02-14T02:45:14.142Z,0
2017-02-14T02:46:14.560Z,0
2017-02-14T02:47:14.199Z,0
2017-02-14T02:48:14.780Z,0
2017-02-14T02:49:14.252Z,0
2017-02-14T02:50:15.074Z,0
2017-02-14T02:51:14.298Z,0
2017-02-14T02:52:13.943Z,0
2017-02-14T02:53:13.816Z,0
2017-02-14T02:54:14.776Z,0
2017-02-14T02:55:14.788Z,0
2017-02-14T02:56:14.030Z,0
2017-02-14T02:57:14.455Z,0
2017-02-14T02:58:15.584Z,0
2017-02-14T02:59:15.317Z,0
2017-02-14T03:00:15.349Z,0
2017-02-14T03:01:14.582Z,0
2017-02-14T03:02:15.022Z,0
2017-02-14T03:03:14.882Z,0
2017-02-14T03:04:14.887Z,0
2017-02-14T03:05:14.709Z,0
2017-02-14T03:06:14.713Z,0
2017-02-14T03:07:14.730Z,0
2017-02-14T03:08:15.539Z,0
2017-02-14T03:09:15.668Z,0
2017-02-14T03:10:14.777Z,0
2017-02-14T03:11:14.813Z,0
2017-02-14T03:12:15.241Z,0
2017-02-14T03:13:14.890Z,0
2017-02-14T03:14:15.815Z,0
2017-02-14T03:15:15.332Z,0
2017-02-14T03:16:15.352Z,0
2017-02-14T03:17:15.784Z,0
2017-02-14T03:18:15.401Z,0
2017-02-14T03:19:15.661Z,0
2017-02-14T03:20:14.670Z,0
2017-02-14T03:21:15.079Z,0
2017-02-14T03:22:15.509Z,0
2017-02-14T03:23:14.729Z,0
2017-02-14T03:24:15.409Z,0
2017-02-14T03:25:15.197Z,0
2017-02-14T03:26:15.646Z,0
2017-02-14T03:27:15.620Z,0
2017-02-14T03:28:16.064Z,0
2017-02-14T03:29:15.949Z,0
2017-02-14T03:30:14.914Z,0
2017-02-14T03:31:16.134Z,0
2017-02-14T03:32:14.951Z,0
2017-02-14T03:33:15.775Z,0
2017-02-14T03:34:15.665Z,0
2017-02-14T03:35:16.501Z,0
2017-02-14T03:36:15.847Z,0
2017-02-14T03:37:15.081Z,0
2017-02-14T03:38:15.120Z,0
2017-02-14T03:39:15.940Z,0
2017-02-14T03:40:15.416Z,0
2017-02-14T03:41:16.381Z,0
2017-02-14T03:42:15.210Z,0
2017-02-14T03:43:15.632Z,0
2017-02-14T03:44:15.665Z,0
2017-02-14T03:45:16.357Z,0
2017-02-14T03:46:16.121Z,0
2017-02-14T03:47:16.137Z,0
2017-02-14T03:48:15.367Z,0
2017-02-14T03:49:16.209Z,0
2017-02-14T03:50:16.740Z,0
2017-02-14T03:51:15.861Z,0
2017-02-14T03:52:15.874Z,0
2017-02-14T03:53:15.108Z,0
2017-02-14T03:54:16.334Z,0
2017-02-14T03:55:16.206Z,0
2017-02-14T03:56:15.584Z,0
2017-02-14T03:57:15.601Z,0
2017-02-14T03:58:16.430Z,0
2017-02-14T03:59:15.252Z,0
2017-02-14T04:00:16.579Z,0
2017-02-14T04:01:16.101Z,0
2017-02-14T04:02:16.526Z,0
2017-02-14T04:03:16.559Z,0
2017-02-14T04:04:16.579Z,0
2017-02-14T04:05:16.483Z,0
2017-02-14T04:06:15.840Z,0
2017-02-14T04:07:16.657Z,0
2017-02-14T04:08:15.925Z,0
2017-02-14T04:09:16.710Z,0
2017-02-14T04:10:16.986Z,0
2017-02-14T04:11:16.400Z,0
2017-02-14T04:12:17.184Z,0
2017-02-14T04:13:17.218Z,0
2017-02-14T04:14:17.239Z,0
2017-02-14T04:15:17.135Z,0
2017-02-14T04:16:16.499Z,0
2017-02-14T04:17:16.948Z,0
2017-02-14T04:18:16.952Z,0
2017-02-14T04:19:16.169Z,0
2017-02-14T04:20:16.450Z,0
2017-02-14T04:21:17.277Z,0
2017-02-14T04:22:17.047Z,0
2017-02-14T04:23:17.090Z,0
2017-02-14T04:24:16.321Z,0
2017-02-14T04:25:16.729Z,0
2017-02-14T04:26:16.630Z,0
2017-02-14T04:27:16.384Z,0
2017-02-14T04:28:17.209Z,0
2017-02-14T04:29:17.221Z,0
2017-02-14T04:30:16.878Z,0
2017-02-14T04:31:17.520Z,0
2017-02-14T04:32:16.907Z,0
2017-02-14T04:33:16.959Z,0
2017-02-14T04:34:16.960Z,0
2017-02-14T04:35:16.181Z,0
2017-02-14T04:36:17.659Z,0
2017-02-14T04:37:17.042Z,0
2017-02-14T04:38:17.051Z,0
2017-02-14T04:39:16.689Z,0
2017-02-14T04:40:17.513Z,0
2017-02-14T04:41:17.789Z,0
2017-02-14T04:42:17.194Z,0
2017-02-14T04:43:16.780Z,0
2017-02-14T04:44:17.212Z,0
2017-02-14T04:45:16.857Z,0
2017-02-14T04:46:17.513Z,0
2017-02-14T04:47:17.290Z,0
2017-02-14T04:48:17.315Z,0
2017-02-14T04:49:17.749Z,0
2017-02-14T04:50:18.184Z,0
2017-02-14T04:51:18.033Z,0
2017-02-14T04:52:17.797Z,0
2017-02-14T04:53:17.843Z,0
2017-02-14T04:54:17.087Z,0
2017-02-14T04:55:17.889Z,0
2017-02-14T04:56:18.433Z,0
2017-02-14T04:57:17.946Z,0
2017-02-14T04:58:17.571Z,0
2017-02-14T04:59:18.383Z,0
2017-02-14T05:00:17.211Z,0
2017-02-14T05:01:17.504Z,0
2017-02-14T05:02:17.669Z,0
2017-02-14T05:03:18.107Z,0
2017-02-14T05:04:18.515Z,0
2017-02-14T05:05:17.756Z,0
2017-02-14T05:06:18.838Z,0
2017-02-14T05:07:18.202Z,0
2017-02-14T05:08:18.238Z,0
2017-02-14T05:09:17.470Z,0
2017-02-14T05:10:17.876Z,0
2017-02-14T05:11:18.164Z,0
2017-02-14T05:12:17.529Z,0
2017-02-14T05:13:17.586Z,0
2017-02-14T05:14:17.614Z,0
2017-02-14T05:15:18.409Z,0
2017-02-14T05:16:19.088Z,0
2017-02-14T05:17:18.477Z,0
2017-02-14T05:18:17.689Z,0
2017-02-14T05:19:17.723Z,0
2017-02-14T05:20:18.542Z,0
2017-02-14T05:21:18.689Z,0
2017-02-14T05:22:18.589Z,0
2017-02-14T05:23:18.633Z,0
2017-02-14T05:24:18.250Z,0
2017-02-14T05:25:18.287Z,0
2017-02-14T05:26:18.935Z,0
2017-02-14T05:27:18.968Z,0
2017-02-14T05:28:17.944Z,0
2017-02-14T05:29:18.757Z,0
2017-02-14T05:30:18.802Z,0
2017-02-14T05:31:18.443Z,0
2017-02-14T05:32:19.092Z,0
2017-02-14T05:33:18.861Z,0
2017-02-14T05:34:18.893Z,0
2017-02-14T05:35:18.536Z,0
2017-02-14T05:36:18.938Z,0
2017-02-14T05:37:18.835Z,0
2017-02-14T05:38:18.996Z,0
2017-02-14T05:39:18.637Z,0
2017-02-14T05:40:19.049Z,0
2017-02-14T05:41:18.286Z,0
2017-02-14T05:42:19.223Z,0
2017-02-14T05:43:19.130Z,0
2017-02-14T05:44:19.156Z,0
2017-02-14T05:45:19.200Z,0
2017-02-14T05:46:18.790Z,0
2017-02-14T05:47:19.894Z,0
2017-02-14T05:48:18.851Z,0
2017-02-14T05:49:18.908Z,0
2017-02-14T05:50:19.305Z,0
2017-02-14T05:51:18.927Z,0
2017-02-14T05:52:19.218Z,0
2017-02-14T05:53:19.382Z,0
2017-02-14T05:54:19.003Z,0
2017-02-14T05:55:19.419Z,0
2017-02-14T05:56:19.065Z,0
2017-02-14T05:57:19.590Z,0
2017-02-14T05:58:19.135Z,0
2017-02-14T05:59:19.147Z,0
2017-02-14T06:00:19.568Z,0
2017-02-14T06:01:19.581Z,0
2017-02-14T06:02:19.478Z,0
2017-02-14T06:03:19.654Z,0
2017-02-14T06:04:18.880Z,0
2017-02-14T06:05:20.088Z,0
2017-02-14T06:06:19.717Z,0
2017-02-14T06:07:19.212Z,0
2017-02-14T06:08:19.377Z,0
2017-02-14T06:09:19.402Z,0
2017-02-14T06:10:19.412Z,0
2017-02-14T06:11:19.443Z,0
2017-02-14T06:12:19.741Z,0
2017-02-14T06:13:19.906Z,0
2017-02-14T06:14:19.551Z,0
2017-02-14T06:15:19.985Z,0
2017-02-14T06:16:19.196Z,0
2017-02-14T06:17:19.486Z,0
2017-02-14T06:18:19.245Z,0
2017-02-14T06:19:19.646Z,0
2017-02-14T06:20:19.688Z,0
2017-02-14T06:21:19.728Z,0
2017-02-14T06:22:19.849Z,0
2017-02-14T06:23:18.965Z,0
2017-02-14T06:24:20.192Z,0
2017-02-14T06:25:20.207Z,0
2017-02-14T06:26:19.835Z,0
2017-02-14T06:27:20.113Z,0
2017-02-14T06:28:19.757Z,0
2017-02-14T06:29:19.906Z,0
2017-02-14T06:30:19.154Z,0
2017-02-14T06:31:19.579Z,0
2017-02-14T06:32:20.380Z,0
2017-02-14T06:33:20.285Z,0
2017-02-14T06:34:20.465Z,0
2017-02-14T06:35:20.462Z,0
2017-02-14T06:36:20.905Z,0
2017-02-14T06:37:20.521Z,0
2017-02-14T06:38:20.405Z,0
2017-02-14T06:39:20.577Z,0
2017-02-14T06:40:20.210Z,0
2017-02-14T06:41:19.839Z,0
2017-02-14T06:42:20.248Z,0
2017-02-14T06:43:20.529Z,0
2017-02-14T06:44:20.317Z,0
2017-02-14T06:45:20.339Z,0
2017-02-14T06:46:21.160Z,0
2017-02-14T06:47:21.199Z,0
2017-02-14T06:48:21.328Z,0
2017-02-14T06:49:20.824Z,0
2017-02-14T06:50:20.080Z,0
2017-02-14T06:51:20.887Z,0
2017-02-14T06:52:20.518Z,0
2017-02-14T06:53:20.800Z,0
2017-02-14T06:54:20.563Z,0
2017-02-14T06:55:20.593Z,0
2017-02-14T06:56:21.006Z,0
2017-02-14T06:57:20.259Z,0
2017-02-14T06:58:21.319Z,0
2017-02-14T06:59:20.727Z,0
2017-02-14T07:00:19.920Z,0
2017-02-14T07:01:21.157Z,0
2017-02-14T07:02:20.774Z,0
2017-02-14T07:03:21.710Z,0
2017-02-14T07:04:21.627Z,0
2017-02-14T07:05:20.840Z,0
2017-02-14T07:06:21.292Z,0
2017-02-14T07:07:21.334Z,0
2017-02-14T07:08:21.597Z,0
2017-02-14T07:09:21.755Z,0
2017-02-14T07:10:20.991Z,5
2017-02-14T07:11:21.424Z,5
2017-02-14T07:12:20.644Z,5
2017-02-14T07:13:21.306Z,5
2017-02-14T07:14:21.083Z,5
2017-02-14T07:15:20.716Z,5
2017-02-14T07:16:21.137Z,5
2017-02-14T07:17:21.186Z,5
2017-02-14T07:18:21.442Z,5
2017-02-14T07:19:21.202Z,5
2017-02-14T07:20:21.645Z,5
2017-02-14T07:21:21.656Z,5
2017-02-14T07:22:21.704Z,5
2017-02-14T07:23:21.582Z,5
2017-02-14T07:24:21.362Z,10
2017-02-14T07:25:21.378Z,10
2017-02-14T07:26:21.820Z,15
2017-02-14T07:27:22.240Z,15
2017-02-14T07:28:21.993Z,15
2017-02-14T07:29:21.478Z,15
2017-02-14T07:30:22.295Z,15
2017-02-14T07:31:21.534Z,15
2017-02-14T07:32:22.340Z,15
2017-02-14T07:33:22.221Z,15
2017-02-14T07:34:22.269Z,15
2017-02-14T07:35:22.421Z,15
2017-02-14T07:36:22.063Z,15
2017-02-14T07:37:22.079Z,20
2017-02-14T07:38:22.109Z,20
2017-02-14T07:39:22.001Z,20
2017-02-14T07:40:22.579Z,20
2017-02-14T07:41:21.811Z,20
2017-02-14T07:42:21.817Z,20
2017-02-14T07:43:22.255Z,20
2017-02-14T07:44:21.717Z,20
2017-02-14T07:45:22.320Z,20
2017-02-14T07:46:22.344Z,20
2017-02-14T07:47:21.556Z,20
2017-02-14T07:48:21.203Z,20
2017-02-14T07:49:22.651Z,20
2017-02-14T07:50:22.413Z,20
2017-02-14T07:51:22.075Z,20
2017-02-14T07:52:21.687Z,20
2017-02-14T07:53:22.531Z,20
2017-02-14T07:54:22.792Z,20
2017-02-14T07:55:21.757Z,20
2017-02-14T07:56:22.990Z,20
2017-02-14T07:57:22.599Z,20
2017-02-14T07:58:22.631Z,20
2017-02-14T07:59:22.128Z,20
2017-02-14T08:00:23.077Z,20
2017-02-14T08:01:22.705Z,20
2017-02-14T08:02:22.746Z,20
2017-02-14T08:03:22.367Z,20
2017-02-14T08:04:22.971Z,20
2017-02-14T08:05:23.244Z,20
2017-02-14T08:06:22.841Z,20
2017-02-14T08:07:23.261Z,20
2017-02-14T08:08:22.122Z,20
2017-02-14T08:09:23.580Z,20
2017-02-14T08:10:22.956Z,20
2017-02-14T08:11:23.381Z,20
2017-02-14T08:12:23.413Z,25
2017-02-14T08:13:23.430Z,25
2017-02-14T08:14:22.522Z,30
2017-02-14T08:15:23.082Z,35
2017-02-14T08:16:22.723Z,35
2017-02-14T08:17:23.544Z,45
2017-02-14T08:18:22.773Z,50
2017-02-14T08:19:23.434Z,55
2017-02-14T08:20:23.211Z,60
2017-02-14T08:21:23.645Z,65
2017-02-14T08:22:23.264Z,65
2017-02-14T08:23:22.489Z,65
2017-02-14T08:24:23.166Z,60
2017-02-14T08:25:22.566Z,60
2017-02-14T08:26:23.377Z,60
2017-02-14T08:27:23.009Z,60
2017-02-14T08:28:22.639Z,55
2017-02-14T08:29:23.311Z,50
2017-02-14T08:30:23.883Z,50
2017-02-14T08:31:23.496Z,50
2017-02-14T08:32:23.548Z,50
2017-02-14T08:33:23.178Z,50
2017-02-14T08:34:23.682Z,50
2017-02-14T08:35:23.222Z,50
2017-02-14T08:36:22.844Z,50
2017-02-14T08:37:23.276Z,50
2017-02-14T08:38:22.928Z,55
2017-02-14T08:39:23.338Z,55
2017-02-14T08:40:23.989Z,55
2017-02-14T08:41:25.187Z,55
2017-02-14T08:42:23.416Z,55
2017-02-14T08:43:23.435Z,55
2017-02-14T08:44:23.844Z,55
2017-02-14T08:45:24.133Z,55
2017-02-14T08:46:23.122Z,50
2017-02-14T08:47:23.545Z,50
2017-02-14T08:48:23.962Z,50
2017-02-14T08:49:23.600Z,50
2017-02-14T08:50:23.474Z,50
2017-02-14T08:51:24.054Z,50
2017-02-14T08:52:23.668Z,50
2017-02-14T08:53:23.704Z,45
2017-02-14T08:54:23.719Z,45
2017-02-14T08:55:23.856Z,45
2017-02-14T08:56:23.776Z,45
2017-02-14T08:57:23.810Z,45
2017-02-14T08:58:23.835Z,45
2017-02-14T08:59:23.860Z,45
2017-02-14T09:00:24.944Z,45
2017-02-14T09:01:24.733Z,45
2017-02-14T09:02:24.349Z,45
2017-02-14T09:03:23.962Z,45
2017-02-14T09:04:23.991Z,45
2017-02-14T09:05:24.267Z,45
2017-02-14T09:06:24.044Z,45
2017-02-14T09:07:24.481Z,45
2017-02-14T09:08:23.702Z,45
2017-02-14T09:09:24.935Z,45
2017-02-14T09:10:25.063Z,45
2017-02-14T09:11:24.609Z,45
2017-02-14T09:12:24.620Z,45
2017-02-14T09:13:23.829Z,45
2017-02-14T09:14:23.478Z,45
2017-02-14T09:15:25.599Z,45
2017-02-14T09:16:23.912Z,45
2017-02-14T09:17:23.981Z,45
2017-02-14T09:18:25.205Z,45
2017-02-14T09:19:24.425Z,45
2017-02-14T09:20:25.087Z,45
2017-02-14T09:21:24.864Z,45
2017-02-14T09:22:24.467Z,45
2017-02-14T09:23:24.516Z,40
2017-02-14T09:24:24.527Z,40
2017-02-14T09:25:25.866Z,40
2017-02-14T09:26:24.995Z,40
2017-02-14T09:27:24.237Z,40
2017-02-14T09:28:25.049Z,40
2017-02-14T09:29:24.669Z,40
2017-02-14T09:30:25.738Z,40
2017-02-14T09:31:24.330Z,40
2017-02-14T09:32:24.359Z,40
2017-02-14T09:33:24.776Z,40
2017-02-14T09:34:24.809Z,40
2017-02-14T09:35:25.486Z,40
2017-02-14T09:36:24.874Z,40
2017-02-14T09:37:25.707Z,40
2017-02-14T09:38:25.308Z,40
2017-02-14T09:39:24.929Z,40
2017-02-14T09:40:25.458Z,40
2017-02-14T09:41:25.386Z,40
2017-02-14T09:42:25.026Z,40
2017-02-14T09:43:24.640Z,40
2017-02-14T09:44:24.683Z,40
2017-02-14T09:45:24.964Z,40
2017-02-14T09:46:25.141Z,40
2017-02-14T09:47:24.750Z,40
2017-02-14T09:48:25.968Z,40
2017-02-14T09:49:25.592Z,40
2017-02-14T09:50:25.880Z,40
2017-02-14T09:51:24.885Z,40
2017-02-14T09:52:24.890Z,40
2017-02-14T09:53:26.111Z,40
2017-02-14T09:54:25.331Z,40
2017-02-14T09:55:26.012Z,40
2017-02-14T09:56:25.249Z,40
2017-02-14T09:57:25.409Z,40
2017-02-14T09:58:25.439Z,40
2017-02-14T09:59:26.260Z,40
2017-02-14T10:00:26.312Z,40
2017-02-14T10:01:26.429Z,40
2017-02-14T10:02:25.158Z,40
2017-02-14T10:03:26.392Z,40
2017-02-14T10:04:25.639Z,40
2017-02-14T10:05:25.652Z,40
2017-02-14T10:06:25.528Z,40
2017-02-14T10:07:26.081Z,40
2017-02-14T10:08:26.514Z,40
2017-02-14T10:09:26.139Z,40
2017-02-14T10:10:26.168Z,40
2017-02-14T10:11:26.068Z,40
2017-02-14T10:12:25.457Z,40
2017-02-14T10:13:25.866Z,40
2017-02-14T10:14:25.932Z,40
2017-02-14T10:15:25.911Z,40
2017-02-14T10:16:27.220Z,40
2017-02-14T10:17:25.980Z,40
2017-02-14T10:18:25.994Z,40
2017-02-14T10:19:26.422Z,40
2017-02-14T10:20:26.046Z,40
2017-02-14T10:21:26.311Z,40
2017-02-14T10:22:26.502Z,40
2017-02-14T10:23:26.144Z,40
2017-02-14T10:24:25.749Z,40
2017-02-14T10:25:26.973Z,40
2017-02-14T10:26:26.852Z,40
2017-02-14T10:27:26.625Z,40
2017-02-14T10:28:27.053Z,40
2017-02-14T10:29:26.298Z,40
2017-02-14T10:30:26.722Z,40
2017-02-14T10:31:27.010Z,40
2017-02-14T10:32:25.988Z,40
2017-02-14T10:33:26.420Z,40
2017-02-14T10:34:27.225Z,40
2017-02-14T10:35:26.049Z,40
2017-02-14T10:36:26.715Z,40
2017-02-14T10:37:27.333Z,40
2017-02-14T10:38:27.321Z,40
2017-02-14T10:39:26.553Z,40
2017-02-14T10:40:27.481Z,40
2017-02-14T10:41:27.014Z,40
2017-02-14T10:42:27.039Z,40
2017-02-14T10:43:26.669Z,40
2017-02-14T10:44:26.313Z,40
2017-02-14T10:45:26.586Z,40
2017-02-14T10:46:27.137Z,40
2017-02-14T10:47:26.782Z,40
2017-02-14T10:48:27.191Z,40
2017-02-14T10:49:26.836Z,40
2017-02-14T10:50:27.101Z,40
2017-02-14T10:51:26.493Z,40
2017-02-14T10:52:27.307Z,40
2017-02-14T10:53:27.335Z,40
2017-02-14T10:54:27.372Z,40
2017-02-14T10:55:26.839Z,40
2017-02-14T10:56:27.805Z,40
2017-02-14T10:57:27.448Z,40
2017-02-14T10:58:27.120Z,40
2017-02-14T10:59:27.501Z,40
2017-02-14T11:00:27.805Z,40
2017-02-14T11:01:27.178Z,40
2017-02-14T11:02:28.002Z,40
2017-02-14T11:03:28.023Z,45
2017-02-14T11:04:26.840Z,45
2017-02-14T11:05:27.156Z,45
2017-02-14T11:06:27.285Z,45
2017-02-14T11:07:27.726Z,45
2017-02-14T11:08:27.354Z,45
2017-02-14T11:09:27.023Z,45
2017-02-14T11:10:28.044Z,45
2017-02-14T11:11:27.052Z,45
2017-02-14T11:12:27.501Z,45
2017-02-14T11:13:27.910Z,45
2017-02-14T11:14:27.515Z,45
2017-02-14T11:15:27.790Z,45
2017-02-14T11:16:27.572Z,50
2017-02-14T11:17:28.004Z,50
2017-02-14T11:18:28.422Z,50
2017-02-14T11:19:27.254Z,50
2017-02-14T11:20:27.951Z,50
2017-02-14T11:21:28.105Z,55
2017-02-14T11:22:27.741Z,55
2017-02-14T11:23:27.774Z,60
2017-02-14T11:24:28.222Z,60
2017-02-14T11:25:28.463Z,60
2017-02-14T11:26:28.640Z,65
2017-02-14T11:27:28.259Z,65
2017-02-14T11:28:27.884Z,65
2017-02-14T11:29:27.929Z,65
2017-02-14T11:30:28.599Z,65
2017-02-14T11:31:27.995Z,65
2017-02-14T11:32:28.023Z,65
2017-02-14T11:33:27.653Z,65
2017-02-14T11:34:28.073Z,65
2017-02-14T11:35:28.755Z,65
2017-02-14T11:36:28.515Z,65
2017-02-14T11:37:28.957Z,65
2017-02-14T11:38:28.180Z,65
2017-02-14T11:39:27.807Z,65
2017-02-14T11:40:28.498Z,70
2017-02-14T11:41:27.867Z,70
2017-02-14T11:42:28.284Z,70
2017-02-14T11:43:27.945Z,70
2017-02-14T11:44:28.341Z,70
2017-02-14T11:45:28.629Z,70
2017-02-14T11:46:28.803Z,70
2017-02-14T11:47:28.830Z,70
2017-02-14T11:48:27.651Z,70
2017-02-14T11:49:28.903Z,70
2017-02-14T11:50:29.189Z,70
2017-02-14T11:51:28.946Z,70
2017-02-14T11:52:28.551Z,70
2017-02-14T11:53:28.607Z,70
2017-02-14T11:54:28.629Z,70
2017-02-14T11:55:29.333Z,70
2017-02-14T11:56:29.466Z,70
2017-02-14T11:57:29.103Z,70
2017-02-14T11:58:29.519Z,70
2017-02-14T11:59:28.769Z,70
2017-02-14T12:00:29.042Z,70
2017-02-14T12:01:28.828Z,70
2017-02-14T12:02:29.235Z,70
2017-02-14T12:03:29.291Z,70
2017-02-14T12:04:28.896Z,70
2017-02-14T12:05:29.175Z,70
2017-02-14T12:06:28.977Z,70
2017-02-14T12:07:29.798Z,70
2017-02-14T12:08:29.043Z,70
2017-02-14T12:09:28.659Z,70
2017-02-14T12:10:28.280Z,70
2017-02-14T12:11:29.749Z,70
2017-02-14T12:12:29.141Z,70
2017-02-14T12:13:29.167Z,75
2017-02-14T12:14:28.427Z,75
2017-02-14T12:15:29.212Z,75
2017-02-14T12:16:29.497Z,75
2017-02-14T12:17:30.074Z,75
2017-02-14T12:18:29.290Z,75
2017-02-14T12:19:29.328Z,75
2017-02-14T12:20:28.950Z,80
2017-02-14T12:21:29.664Z,80
2017-02-14T12:22:29.820Z,80
2017-02-14T12:23:29.459Z,85
2017-02-14T12:24:29.458Z,90
2017-02-14T12:25:29.891Z,90
2017-02-14T12:26:29.780Z,90
2017-02-14T12:27:29.944Z,90
2017-02-14T12:28:30.368Z,95
2017-02-14T12:29:29.613Z,95
2017-02-14T12:30:29.274Z,95
2017-02-14T12:31:30.351Z,100
2017-02-14T12:32:29.691Z,100
2017-02-14T12:33:30.125Z,100
2017-02-14T12:34:29.750Z,105
2017-02-14T12:35:30.222Z,105
2017-02-14T12:36:29.682Z,105
2017-02-14T12:37:30.628Z,110
2017-02-14T12:38:30.684Z,115
2017-02-14T12:39:29.501Z,115
2017-02-14T12:40:29.962Z,120
2017-02-14T12:41:30.215Z,120
2017-02-14T12:42:29.991Z,120
2017-02-14T12:43:30.020Z,120
2017-02-14T12:44:30.445Z,125
2017-02-14T12:45:30.490Z,120
2017-02-14T12:46:31.153Z,125
2017-02-14T12:47:30.562Z,120
2017-02-14T12:48:30.948Z,125
2017-02-14T12:49:30.195Z,125
2017-02-14T12:50:30.240Z,125
2017-02-14T12:51:30.535Z,120
2017-02-14T12:52:30.686Z,120
2017-02-14T12:53:30.322Z,120
2017-02-14T12:54:30.752Z,115
2017-02-14T12:55:30.393Z,115
2017-02-14T12:56:30.665Z,115
2017-02-14T12:57:30.449Z,115
2017-02-14T12:58:31.254Z,110
2017-02-14T12:59:30.498Z,110
2017-02-14T13:00:30.544Z,110
2017-02-14T13:01:31.201Z,105
2017-02-14T13:02:30.994Z,105
2017-02-14T13:03:31.026Z,100
2017-02-14T13:04:30.656Z,100
2017-02-14T13:05:30.675Z,100
2017-02-14T13:06:30.957Z,100
2017-02-14T13:07:31.529Z,100
2017-02-14T13:08:30.762Z,100
2017-02-14T13:09:31.206Z,100
2017-02-14T13:10:30.819Z,95
2017-02-14T13:11:31.099Z,95
2017-02-14T13:12:31.308Z,95
2017-02-14T13:13:30.918Z,90
2017-02-14T13:14:30.958Z,90
2017-02-14T13:15:30.975Z,90
2017-02-14T13:16:31.248Z,85
2017-02-14T13:17:31.442Z,85
2017-02-14T13:18:31.865Z,80
2017-02-14T13:19:30.313Z,80
2017-02-14T13:20:31.147Z,80
2017-02-14T13:21:31.006Z,75
2017-02-14T13:22:31.176Z,75
2017-02-14T13:23:30.833Z,75
2017-02-14T13:24:31.233Z,75
2017-02-14T13:25:31.317Z,70
2017-02-14T13:26:31.948Z,75
2017-02-14T13:27:32.136Z,70
2017-02-14T13:28:31.776Z,70
2017-02-14T13:29:31.777Z,65
2017-02-14T13:30:31.850Z,65
2017-02-14T13:31:32.110Z,65
2017-02-14T13:32:31.499Z,65
2017-02-14T13:33:31.927Z,60
2017-02-14T13:34:31.144Z,55
2017-02-14T13:35:31.577Z,50
2017-02-14T13:36:32.658Z,50
2017-02-14T13:37:31.648Z,50
2017-02-14T13:38:32.063Z,50
2017-02-14T13:39:32.104Z,50
2017-02-14T13:40:31.720Z,55
2017-02-14T13:41:32.001Z,60
2017-02-14T13:42:31.799Z,55
2017-02-14T13:43:31.823Z,55
2017-02-14T13:44:32.240Z,55
2017-02-14T13:45:32.288Z,55
2017-02-14T13:46:32.961Z,55
2017-02-14T13:47:32.745Z,55
2017-02-14T13:48:32.783Z,55
2017-02-14T13:49:32.008Z,55
2017-02-14T13:50:31.628Z,50
2017-02-14T13:51:31.930Z,50
2017-02-14T13:52:32.078Z,50
2017-02-14T13:53:32.138Z,55
2017-02-14T13:54:32.555Z,55
2017-02-14T13:55:32.969Z,55
2017-02-14T13:56:32.865Z,55
2017-02-14T13:57:33.043Z,55
2017-02-14T13:58:32.672Z,50
2017-02-14T13:59:32.700Z,50
2017-02-14T14:00:32.348Z,45
2017-02-14T14:01:31.817Z,45
2017-02-14T14:02:32.798Z,45
2017-02-14T14:03:32.418Z,40
2017-02-14T14:04:32.460Z,40
2017-02-14T14:05:32.114Z,40
2017-02-14T14:06:32.784Z,40
2017-02-14T14:07:32.145Z,40
2017-02-14T14:08:32.563Z,35
2017-02-14T14:09:32.994Z,35
2017-02-14T14:10:33.460Z,35
2017-02-14T14:11:33.305Z,35
2017-02-14T14:12:32.689Z,30
2017-02-14T14:13:33.111Z,30
2017-02-14T14:14:32.347Z,30
2017-02-14T14:15:32.808Z,30
2017-02-14T14:16:32.036Z,30
2017-02-14T14:17:33.882Z,30
2017-02-14T14:18:33.662Z,25
2017-02-14T14:19:33.331Z,25
2017-02-14T14:20:33.327Z,25
2017-02-14T14:21:33.773Z,25
2017-02-14T14:22:33.648Z,25
2017-02-14T14:23:33.038Z,25
2017-02-14T14:24:33.842Z,20
2017-02-14T14:25:33.483Z,20
2017-02-14T14:26:33.139Z,20
2017-02-14T14:27:33.005Z,20
2017-02-14T14:28:33.593Z,20
2017-02-14T14:29:34.015Z,20
2017-02-14T14:30:33.231Z,20